sensor_id;sensor_type;location;lat;lon;timestamp;P1;durP1;ratioP1;P2;durP2;ratioP2
47669;SDS011;33408;52.062;11.722;2022-08-27T00:00:48;10.05;;;6.38;;
47669;SDS011;33408;52.062;11.722;2022-08-27T00:03:16;14.07;;;6.28;;
47669;SDS011;33408;52.062;11.722;2022-08-27T00:05:42;11.88;;;6.70;;
47669;SDS011;33408;52.062;11.722;2022-08-27T00:08:10;12.13;;;6.60;;
47669;SDS011;33408;52.062;11.722;2022-08-27T00:10:37;9.95;;;7.20;;
47669;SDS011;33408;52.062;11.722;2022-08-27T00:13:05;10.77;;;6.47;;
47669;SDS011;33408;52.062;11.722;2022-08-27T00:15:31;11.00;;;6.63;;
47669;SDS011;33408;52.062;11.722;2022-08-27T00:17:59;13.35;;;6.90;;
47669;SDS011;33408;52.062;11.722;2022-08-27T00:20:26;16.50;;;7.25;;
47669;SDS011;33408;52.062;11.722;2022-08-27T00:22:53;12.55;;;6.75;;
47669;SDS011;33408;52.062;11.722;2022-08-27T00:25:20;12.93;;;7.57;;
47669;SDS011;33408;52.062;11.722;2022-08-27T00:27:47;10.68;;;6.95;;
47669;SDS011;33408;52.062;11.722;2022-08-27T00:30:15;16.48;;;7.18;;
47669;SDS011;33408;52.062;11.722;2022-08-27T00:32:43;12.90;;;7.20;;
47669;SDS011;33408;52.062;11.722;2022-08-27T00:35:11;15.02;;;7.00;;
47669;SDS011;33408;52.062;11.722;2022-08-27T00:37:40;11.95;;;6.78;;
47669;SDS011;33408;52.062;11.722;2022-08-27T00:40:08;15.45;;;6.88;;
47669;SDS011;33408;52.062;11.722;2022-08-27T00:42:37;12.82;;;7.20;;
47669;SDS011;33408;52.062;11.722;2022-08-27T00:45:06;10.60;;;6.43;;
47669;SDS011;33408;52.062;11.722;2022-08-27T00:47:34;13.32;;;5.95;;
47669;SDS011;33408;52.062;11.722;2022-08-27T00:50:07;12.38;;;6.25;;
47669;SDS011;33408;52.062;11.722;2022-08-27T00:52:43;11.77;;;6.43;;
47669;SDS011;33408;52.062;11.722;2022-08-27T00:55:14;12.65;;;6.72;;
47669;SDS011;33408;52.062;11.722;2022-08-27T00:57:44;10.25;;;6.82;;
47669;SDS011;33408;52.062;11.722;2022-08-27T01:00:15;13.15;;;6.22;;
47669;SDS011;33408;52.062;11.722;2022-08-27T01:02:43;10.23;;;7.30;;
47669;SDS011;33408;52.062;11.722;2022-08-27T01:05:12;13.98;;;6.70;;
47669;SDS011;33408;52.062;11.722;2022-08-27T01:07:46;13.70;;;6.57;;
47669;SDS011;33408;52.062;11.722;2022-08-27T01:10:15;12.10;;;6.88;;
47669;SDS011;33408;52.062;11.722;2022-08-27T01:12:45;12.07;;;7.25;;
47669;SDS011;33408;52.062;11.722;2022-08-27T01:15:13;13.50;;;7.25;;
47669;SDS011;33408;52.062;11.722;2022-08-27T01:17:42;13.23;;;6.80;;
47669;SDS011;33408;52.062;11.722;2022-08-27T01:20:13;14.75;;;7.05;;
47669;SDS011;33408;52.062;11.722;2022-08-27T01:22:45;10.23;;;6.33;;
47669;SDS011;33408;52.062;11.722;2022-08-27T01:25:19;9.73;;;6.05;;
47669;SDS011;33408;52.062;11.722;2022-08-27T01:27:48;11.88;;;6.47;;
47669;SDS011;33408;52.062;11.722;2022-08-27T01:30:16;11.68;;;6.80;;
47669;SDS011;33408;52.062;11.722;2022-08-27T01:32:44;10.75;;;7.13;;
47669;SDS011;33408;52.062;11.722;2022-08-27T01:35:12;12.55;;;6.85;;
47669;SDS011;33408;52.062;11.722;2022-08-27T01:37:40;13.77;;;7.25;;
47669;SDS011;33408;52.062;11.722;2022-08-27T01:40:09;11.70;;;6.18;;
47669;SDS011;33408;52.062;11.722;2022-08-27T01:42:38;10.18;;;6.30;;
47669;SDS011;33408;52.062;11.722;2022-08-27T01:45:09;13.23;;;6.45;;
47669;SDS011;33408;52.062;11.722;2022-08-27T01:47:37;8.48;;;6.38;;
47669;SDS011;33408;52.062;11.722;2022-08-27T01:50:06;13.10;;;6.57;;
47669;SDS011;33408;52.062;11.722;2022-08-27T01:52:34;13.10;;;6.35;;
47669;SDS011;33408;52.062;11.722;2022-08-27T01:55:01;12.65;;;6.30;;
47669;SDS011;33408;52.062;11.722;2022-08-27T01:57:27;10.52;;;6.60;;
47669;SDS011;33408;52.062;11.722;2022-08-27T01:59:56;13.52;;;6.85;;
47669;SDS011;33408;52.062;11.722;2022-08-27T02:02:23;11.35;;;6.95;;
47669;SDS011;33408;52.062;11.722;2022-08-27T02:04:49;12.68;;;6.65;;
47669;SDS011;33408;52.062;11.722;2022-08-27T02:07:16;10.43;;;6.97;;
47669;SDS011;33408;52.062;11.722;2022-08-27T02:09:43;12.68;;;7.30;;
47669;SDS011;33408;52.062;11.722;2022-08-27T02:12:10;13.15;;;7.25;;
47669;SDS011;33408;52.062;11.722;2022-08-27T02:14:36;12.05;;;7.00;;
47669;SDS011;33408;52.062;11.722;2022-08-27T02:17:04;16.58;;;8.43;;
47669;SDS011;33408;52.062;11.722;2022-08-27T02:19:31;13.68;;;7.25;;
47669;SDS011;33408;52.062;11.722;2022-08-27T02:21:57;17.08;;;7.72;;
47669;SDS011;33408;52.062;11.722;2022-08-27T02:24:24;12.43;;;8.00;;
47669;SDS011;33408;52.062;11.722;2022-08-27T02:26:52;13.02;;;7.82;;
47669;SDS011;33408;52.062;11.722;2022-08-27T02:29:19;12.27;;;7.50;;
47669;SDS011;33408;52.062;11.722;2022-08-27T02:31:45;14.00;;;8.15;;
47669;SDS011;33408;52.062;11.722;2022-08-27T02:34:13;11.57;;;7.90;;
47669;SDS011;33408;52.062;11.722;2022-08-27T02:36:40;16.70;;;7.55;;
47669;SDS011;33408;52.062;11.722;2022-08-27T02:39:08;14.35;;;7.53;;
47669;SDS011;33408;52.062;11.722;2022-08-27T02:41:35;14.38;;;8.55;;
47669;SDS011;33408;52.062;11.722;2022-08-27T02:44:02;15.73;;;8.48;;
47669;SDS011;33408;52.062;11.722;2022-08-27T02:46:29;16.02;;;9.23;;
47669;SDS011;33408;52.062;11.722;2022-08-27T02:48:55;17.27;;;10.15;;
47669;SDS011;33408;52.062;11.722;2022-08-27T02:51:23;11.82;;;8.63;;
47669;SDS011;33408;52.062;11.722;2022-08-27T02:53:50;12.82;;;8.73;;
47669;SDS011;33408;52.062;11.722;2022-08-27T02:56:17;13.90;;;10.40;;
47669;SDS011;33408;52.062;11.722;2022-08-27T02:58:43;16.10;;;10.65;;
47669;SDS011;33408;52.062;11.722;2022-08-27T03:01:10;13.57;;;9.38;;
47669;SDS011;33408;52.062;11.722;2022-08-27T03:03:37;20.05;;;12.38;;
47669;SDS011;33408;52.062;11.722;2022-08-27T03:06:03;19.33;;;13.18;;
47669;SDS011;33408;52.062;11.722;2022-08-27T03:08:31;19.42;;;14.60;;
47669;SDS011;33408;52.062;11.722;2022-08-27T03:10:58;20.45;;;16.30;;
47669;SDS011;33408;52.062;11.722;2022-08-27T03:13:25;21.10;;;15.02;;
47669;SDS011;33408;52.062;11.722;2022-08-27T03:15:52;23.77;;;15.95;;
47669;SDS011;33408;52.062;11.722;2022-08-27T03:18:19;19.92;;;15.15;;
47669;SDS011;33408;52.062;11.722;2022-08-27T03:20:46;23.80;;;16.02;;
47669;SDS011;33408;52.062;11.722;2022-08-27T03:23:15;22.02;;;16.30;;
47669;SDS011;33408;52.062;11.722;2022-08-27T03:25:46;29.88;;;17.17;;
47669;SDS011;33408;52.062;11.722;2022-08-27T03:28:15;21.60;;;15.25;;
47669;SDS011;33408;52.062;11.722;2022-08-27T03:30:46;25.25;;;16.65;;
47669;SDS011;33408;52.062;11.722;2022-08-27T03:33:16;23.98;;;17.75;;
47669;SDS011;33408;52.062;11.722;2022-08-27T03:35:43;24.38;;;16.58;;
47669;SDS011;33408;52.062;11.722;2022-08-27T03:38:10;28.05;;;20.23;;
47669;SDS011;33408;52.062;11.722;2022-08-27T03:40:37;30.17;;;20.17;;
47669;SDS011;33408;52.062;11.722;2022-08-27T03:43:04;34.35;;;22.73;;
47669;SDS011;33408;52.062;11.722;2022-08-27T03:45:31;32.22;;;22.33;;
47669;SDS011;33408;52.062;11.722;2022-08-27T03:47:58;37.45;;;23.20;;
47669;SDS011;33408;52.062;11.722;2022-08-27T03:50:24;35.80;;;24.23;;
47669;SDS011;33408;52.062;11.722;2022-08-27T03:52:51;35.53;;;24.17;;
47669;SDS011;33408;52.062;11.722;2022-08-27T03:55:18;39.95;;;27.42;;
47669;SDS011;33408;52.062;11.722;2022-08-27T03:57:45;35.65;;;26.50;;
47669;SDS011;33408;52.062;11.722;2022-08-27T04:00:14;44.65;;;30.70;;
47669;SDS011;33408;52.062;11.722;2022-08-27T04:02:41;44.60;;;30.73;;
47669;SDS011;33408;52.062;11.722;2022-08-27T04:05:09;47.22;;;31.15;;
47669;SDS011;33408;52.062;11.722;2022-08-27T04:07:36;47.28;;;32.35;;
47669;SDS011;33408;52.062;11.722;2022-08-27T04:10:04;48.53;;;31.25;;
47669;SDS011;33408;52.062;11.722;2022-08-27T04:12:31;47.22;;;33.90;;
47669;SDS011;33408;52.062;11.722;2022-08-27T04:14:58;49.53;;;34.75;;
47669;SDS011;33408;52.062;11.722;2022-08-27T04:17:26;48.17;;;34.15;;
47669;SDS011;33408;52.062;11.722;2022-08-27T04:19:53;49.60;;;33.65;;
47669;SDS011;33408;52.062;11.722;2022-08-27T04:22:20;52.03;;;35.35;;
47669;SDS011;33408;52.062;11.722;2022-08-27T04:24:47;59.03;;;36.45;;
47669;SDS011;33408;52.062;11.722;2022-08-27T04:27:14;57.30;;;39.00;;
47669;SDS011;33408;52.062;11.722;2022-08-27T04:29:42;57.88;;;41.28;;
47669;SDS011;33408;52.062;11.722;2022-08-27T04:32:09;60.25;;;42.20;;
47669;SDS011;33408;52.062;11.722;2022-08-27T04:34:37;58.50;;;42.15;;
47669;SDS011;33408;52.062;11.722;2022-08-27T04:37:04;61.83;;;43.35;;
47669;SDS011;33408;52.062;11.722;2022-08-27T04:39:30;63.35;;;41.88;;
47669;SDS011;33408;52.062;11.722;2022-08-27T04:41:58;58.22;;;39.60;;
47669;SDS011;33408;52.062;11.722;2022-08-27T04:44:26;55.85;;;40.58;;
47669;SDS011;33408;52.062;11.722;2022-08-27T04:46:54;58.75;;;40.65;;
47669;SDS011;33408;52.062;11.722;2022-08-27T04:49:22;55.33;;;37.28;;
47669;SDS011;33408;52.062;11.722;2022-08-27T04:51:51;54.58;;;40.40;;
47669;SDS011;33408;52.062;11.722;2022-08-27T04:54:18;53.95;;;39.00;;
47669;SDS011;33408;52.062;11.722;2022-08-27T04:56:46;55.42;;;40.83;;
47669;SDS011;33408;52.062;11.722;2022-08-27T04:59:13;56.13;;;40.03;;
47669;SDS011;33408;52.062;11.722;2022-08-27T05:01:40;55.95;;;38.22;;
47669;SDS011;33408;52.062;11.722;2022-08-27T05:04:07;58.53;;;40.70;;
47669;SDS011;33408;52.062;11.722;2022-08-27T05:06:35;54.25;;;38.85;;
47669;SDS011;33408;52.062;11.722;2022-08-27T05:09:04;53.55;;;38.20;;
47669;SDS011;33408;52.062;11.722;2022-08-27T05:11:31;53.88;;;39.42;;
47669;SDS011;33408;52.062;11.722;2022-08-27T05:14:00;55.17;;;37.75;;
47669;SDS011;33408;52.062;11.722;2022-08-27T05:16:27;51.70;;;38.30;;
47669;SDS011;33408;52.062;11.722;2022-08-27T05:18:56;56.80;;;40.85;;
47669;SDS011;33408;52.062;11.722;2022-08-27T05:21:24;60.63;;;41.15;;
47669;SDS011;33408;52.062;11.722;2022-08-27T05:23:52;55.53;;;39.63;;
47669;SDS011;33408;52.062;11.722;2022-08-27T05:26:22;61.42;;;41.70;;
47669;SDS011;33408;52.062;11.722;2022-08-27T05:28:49;56.10;;;40.92;;
47669;SDS011;33408;52.062;11.722;2022-08-27T05:31:16;61.92;;;41.80;;
47669;SDS011;33408;52.062;11.722;2022-08-27T05:33:44;59.33;;;40.50;;
47669;SDS011;33408;52.062;11.722;2022-08-27T05:36:15;57.63;;;40.03;;
47669;SDS011;33408;52.062;11.722;2022-08-27T05:38:44;55.33;;;39.85;;
47669;SDS011;33408;52.062;11.722;2022-08-27T05:41:13;54.42;;;37.72;;
47669;SDS011;33408;52.062;11.722;2022-08-27T05:43:43;52.60;;;37.65;;
47669;SDS011;33408;52.062;11.722;2022-08-27T05:46:11;53.53;;;36.72;;
47669;SDS011;33408;52.062;11.722;2022-08-27T05:48:39;50.35;;;38.20;;
47669;SDS011;33408;52.062;11.722;2022-08-27T05:51:07;55.40;;;34.38;;
47669;SDS011;33408;52.062;11.722;2022-08-27T05:53:35;50.92;;;33.95;;
47669;SDS011;33408;52.062;11.722;2022-08-27T05:56:03;50.10;;;34.33;;
47669;SDS011;33408;52.062;11.722;2022-08-27T05:58:29;47.90;;;32.80;;
47669;SDS011;33408;52.062;11.722;2022-08-27T06:01:16;41.80;;;31.50;;
47669;SDS011;33408;52.062;11.722;2022-08-27T06:03:46;43.88;;;32.00;;
47669;SDS011;33408;52.062;11.722;2022-08-27T06:06:17;45.47;;;31.63;;
47669;SDS011;33408;52.062;11.722;2022-08-27T06:08:44;40.63;;;31.70;;
47669;SDS011;33408;52.062;11.722;2022-08-27T06:11:10;39.67;;;30.35;;
47669;SDS011;33408;52.062;11.722;2022-08-27T06:13:37;37.75;;;29.63;;
47669;SDS011;33408;52.062;11.722;2022-08-27T06:16:06;40.10;;;28.95;;
47669;SDS011;33408;52.062;11.722;2022-08-27T06:18:36;37.47;;;28.63;;
47669;SDS011;33408;52.062;11.722;2022-08-27T06:21:03;37.35;;;28.55;;
47669;SDS011;33408;52.062;11.722;2022-08-27T06:23:31;39.90;;;30.20;;
47669;SDS011;33408;52.062;11.722;2022-08-27T06:25:58;43.60;;;31.77;;
47669;SDS011;33408;52.062;11.722;2022-08-27T06:28:26;37.45;;;30.50;;
47669;SDS011;33408;52.062;11.722;2022-08-27T06:31:00;38.90;;;30.13;;
47669;SDS011;33408;52.062;11.722;2022-08-27T06:33:28;38.22;;;31.20;;
47669;SDS011;33408;52.062;11.722;2022-08-27T06:35:58;36.90;;;29.15;;
47669;SDS011;33408;52.062;11.722;2022-08-27T06:38:25;41.42;;;31.10;;
47669;SDS011;33408;52.062;11.722;2022-08-27T06:40:52;41.13;;;32.05;;
47669;SDS011;33408;52.062;11.722;2022-08-27T06:43:19;43.88;;;31.38;;
47669;SDS011;33408;52.062;11.722;2022-08-27T06:45:46;40.67;;;31.00;;
47669;SDS011;33408;52.062;11.722;2022-08-27T06:48:12;42.10;;;30.92;;
47669;SDS011;33408;52.062;11.722;2022-08-27T06:50:40;41.45;;;31.20;;
47669;SDS011;33408;52.062;11.722;2022-08-27T06:53:09;50.05;;;34.00;;
47669;SDS011;33408;52.062;11.722;2022-08-27T06:55:39;44.83;;;32.88;;
47669;SDS011;33408;52.062;11.722;2022-08-27T06:58:06;43.85;;;35.58;;
47669;SDS011;33408;52.062;11.722;2022-08-27T07:00:33;44.97;;;33.72;;
47669;SDS011;33408;52.062;11.722;2022-08-27T07:02:59;51.60;;;35.28;;
47669;SDS011;33408;52.062;11.722;2022-08-27T07:05:29;47.42;;;35.05;;
47669;SDS011;33408;52.062;11.722;2022-08-27T07:07:56;45.15;;;34.75;;
47669;SDS011;33408;52.062;11.722;2022-08-27T07:10:24;46.28;;;31.83;;
47669;SDS011;33408;52.062;11.722;2022-08-27T07:12:50;41.90;;;30.52;;
47669;SDS011;33408;52.062;11.722;2022-08-27T07:15:17;40.13;;;29.73;;
47669;SDS011;33408;52.062;11.722;2022-08-27T07:17:44;39.95;;;30.80;;
47669;SDS011;33408;52.062;11.722;2022-08-27T07:20:11;40.05;;;30.02;;
47669;SDS011;33408;52.062;11.722;2022-08-27T07:22:38;40.85;;;30.20;;
47669;SDS011;33408;52.062;11.722;2022-08-27T07:25:06;40.80;;;29.75;;
47669;SDS011;33408;52.062;11.722;2022-08-27T07:27:36;36.03;;;27.77;;
47669;SDS011;33408;52.062;11.722;2022-08-27T07:30:03;38.13;;;26.27;;
47669;SDS011;33408;52.062;11.722;2022-08-27T07:32:32;35.15;;;24.92;;
47669;SDS011;33408;52.062;11.722;2022-08-27T07:34:58;32.45;;;23.30;;
47669;SDS011;33408;52.062;11.722;2022-08-27T07:37:25;31.98;;;22.30;;
47669;SDS011;33408;52.062;11.722;2022-08-27T07:39:52;29.70;;;23.13;;
47669;SDS011;33408;52.062;11.722;2022-08-27T07:42:18;32.55;;;23.20;;
47669;SDS011;33408;52.062;11.722;2022-08-27T07:45:04;28.27;;;21.30;;
47669;SDS011;33408;52.062;11.722;2022-08-27T07:47:31;27.08;;;20.48;;
47669;SDS011;33408;52.062;11.722;2022-08-27T07:49:57;29.45;;;23.17;;
47669;SDS011;33408;52.062;11.722;2022-08-27T07:52:24;26.45;;;21.25;;
47669;SDS011;33408;52.062;11.722;2022-08-27T07:54:51;29.58;;;21.70;;
47669;SDS011;33408;52.062;11.722;2022-08-27T07:57:18;28.27;;;21.02;;
47669;SDS011;33408;52.062;11.722;2022-08-27T07:59:44;27.08;;;20.25;;
47669;SDS011;33408;52.062;11.722;2022-08-27T08:02:13;28.38;;;20.73;;
47669;SDS011;33408;52.062;11.722;2022-08-27T08:04:40;25.95;;;18.65;;
47669;SDS011;33408;52.062;11.722;2022-08-27T08:07:06;22.73;;;17.77;;
47669;SDS011;33408;52.062;11.722;2022-08-27T08:09:33;23.50;;;16.52;;
47669;SDS011;33408;52.062;11.722;2022-08-27T08:12:00;21.13;;;14.65;;
47669;SDS011;33408;52.062;11.722;2022-08-27T08:14:27;19.40;;;14.02;;
47669;SDS011;33408;52.062;11.722;2022-08-27T08:16:57;18.92;;;12.63;;
47669;SDS011;33408;52.062;11.722;2022-08-27T08:19:26;18.38;;;13.18;;
47669;SDS011;33408;52.062;11.722;2022-08-27T08:21:54;20.38;;;12.98;;
47669;SDS011;33408;52.062;11.722;2022-08-27T08:24:21;17.05;;;11.90;;
47669;SDS011;33408;52.062;11.722;2022-08-27T08:26:47;14.73;;;11.15;;
47669;SDS011;33408;52.062;11.722;2022-08-27T08:29:14;16.10;;;11.27;;
47669;SDS011;33408;52.062;11.722;2022-08-27T08:31:41;22.38;;;12.13;;
47669;SDS011;33408;52.062;11.722;2022-08-27T08:34:08;13.48;;;10.63;;
47669;SDS011;33408;52.062;11.722;2022-08-27T08:36:37;16.88;;;10.95;;
47669;SDS011;33408;52.062;11.722;2022-08-27T08:39:03;14.40;;;10.00;;
47669;SDS011;33408;52.062;11.722;2022-08-27T08:41:35;17.45;;;10.75;;
47669;SDS011;33408;52.062;11.722;2022-08-27T08:44:07;16.25;;;10.63;;
47669;SDS011;33408;52.062;11.722;2022-08-27T08:46:40;13.70;;;10.30;;
47669;SDS011;33408;52.062;11.722;2022-08-27T08:49:15;17.23;;;11.68;;
47669;SDS011;33408;52.062;11.722;2022-08-27T08:51:51;14.75;;;10.80;;
47669;SDS011;33408;52.062;11.722;2022-08-27T08:54:22;18.37;;;11.90;;
47669;SDS011;33408;52.062;11.722;2022-08-27T08:56:56;15.13;;;10.48;;
47669;SDS011;33408;52.062;11.722;2022-08-27T08:59:28;14.20;;;10.63;;
47669;SDS011;33408;52.062;11.722;2022-08-27T09:01:58;13.75;;;10.15;;
47669;SDS011;33408;52.062;11.722;2022-08-27T09:04:25;16.13;;;10.18;;
47669;SDS011;33408;52.062;11.722;2022-08-27T09:06:56;14.88;;;11.70;;
47669;SDS011;33408;52.062;11.722;2022-08-27T09:09:29;19.48;;;12.10;;
47669;SDS011;33408;52.062;11.722;2022-08-27T09:12:02;16.30;;;11.40;;
47669;SDS011;33408;52.062;11.722;2022-08-27T09:14:36;16.10;;;11.35;;
47669;SDS011;33408;52.062;11.722;2022-08-27T09:17:06;16.98;;;10.23;;
47669;SDS011;33408;52.062;11.722;2022-08-27T09:19:33;15.65;;;10.35;;
47669;SDS011;33408;52.062;11.722;2022-08-27T09:22:02;18.08;;;9.85;;
47669;SDS011;33408;52.062;11.722;2022-08-27T09:24:37;12.43;;;9.30;;
47669;SDS011;33408;52.062;11.722;2022-08-27T09:27:12;17.73;;;10.82;;
47669;SDS011;33408;52.062;11.722;2022-08-27T09:29:45;14.82;;;10.32;;
47669;SDS011;33408;52.062;11.722;2022-08-27T09:32:13;19.35;;;11.80;;
47669;SDS011;33408;52.062;11.722;2022-08-27T09:34:40;17.88;;;10.98;;
47669;SDS011;33408;52.062;11.722;2022-08-27T09:37:11;17.67;;;10.80;;
47669;SDS011;33408;52.062;11.722;2022-08-27T09:39:45;14.95;;;9.10;;
47669;SDS011;33408;52.062;11.722;2022-08-27T09:42:27;17.33;;;9.57;;
47669;SDS011;33408;52.062;11.722;2022-08-27T09:44:56;16.05;;;8.90;;
47669;SDS011;33408;52.062;11.722;2022-08-27T09:47:23;13.45;;;8.40;;
47669;SDS011;33408;52.062;11.722;2022-08-27T09:49:59;16.17;;;9.00;;
47669;SDS011;33408;52.062;11.722;2022-08-27T09:52:31;13.45;;;9.75;;
47669;SDS011;33408;52.062;11.722;2022-08-27T09:54:59;15.40;;;10.70;;
47669;SDS011;33408;52.062;11.722;2022-08-27T09:57:29;17.95;;;9.98;;
47669;SDS011;33408;52.062;11.722;2022-08-27T09:59:59;18.05;;;10.40;;
47669;SDS011;33408;52.062;11.722;2022-08-27T10:02:26;16.17;;;11.25;;
47669;SDS011;33408;52.062;11.722;2022-08-27T10:04:54;17.35;;;12.10;;
47669;SDS011;33408;52.062;11.722;2022-08-27T10:07:26;15.60;;;11.48;;
47669;SDS011;33408;52.062;11.722;2022-08-27T10:09:59;13.80;;;11.20;;
47669;SDS011;33408;52.062;11.722;2022-08-27T10:12:36;17.42;;;11.23;;
47669;SDS011;33408;52.062;11.722;2022-08-27T10:15:12;18.90;;;12.40;;
47669;SDS011;33408;52.062;11.722;2022-08-27T10:17:42;13.82;;;10.57;;
47669;SDS011;33408;52.062;11.722;2022-08-27T10:20:18;14.82;;;10.73;;
47669;SDS011;33408;52.062;11.722;2022-08-27T10:22:53;15.13;;;11.32;;
47669;SDS011;33408;52.062;11.722;2022-08-27T10:25:36;15.80;;;11.20;;
47669;SDS011;33408;52.062;11.722;2022-08-27T10:28:17;14.00;;;10.80;;
47669;SDS011;33408;52.062;11.722;2022-08-27T10:31:01;14.00;;;11.25;;
47669;SDS011;33408;52.062;11.722;2022-08-27T10:33:41;14.57;;;10.27;;
47669;SDS011;33408;52.062;11.722;2022-08-27T10:36:19;15.15;;;10.40;;
47669;SDS011;33408;52.062;11.722;2022-08-27T10:38:56;17.30;;;10.88;;
47669;SDS011;33408;52.062;11.722;2022-08-27T10:41:30;18.38;;;12.30;;
47669;SDS011;33408;52.062;11.722;2022-08-27T10:44:13;17.55;;;12.05;;
47669;SDS011;33408;52.062;11.722;2022-08-27T10:46:55;15.90;;;11.95;;
47669;SDS011;33408;52.062;11.722;2022-08-27T10:49:37;16.13;;;12.40;;
47669;SDS011;33408;52.062;11.722;2022-08-27T10:52:13;15.43;;;10.60;;
47669;SDS011;33408;52.062;11.722;2022-08-27T10:54:48;16.75;;;13.07;;
47669;SDS011;33408;52.062;11.722;2022-08-27T10:57:20;16.42;;;11.02;;
47669;SDS011;33408;52.062;11.722;2022-08-27T10:59:58;16.52;;;10.45;;
47669;SDS011;33408;52.062;11.722;2022-08-27T11:02:35;13.82;;;9.02;;
47669;SDS011;33408;52.062;11.722;2022-08-27T11:05:09;12.10;;;8.93;;
47669;SDS011;33408;52.062;11.722;2022-08-27T11:07:41;12.18;;;9.48;;
47669;SDS011;33408;52.062;11.722;2022-08-27T11:10:15;13.57;;;9.80;;
47669;SDS011;33408;52.062;11.722;2022-08-27T11:12:50;17.55;;;9.15;;
47669;SDS011;33408;52.062;11.722;2022-08-27T11:15:21;18.48;;;9.82;;
47669;SDS011;33408;52.062;11.722;2022-08-27T11:17:53;17.15;;;10.02;;
47669;SDS011;33408;52.062;11.722;2022-08-27T11:20:26;19.48;;;10.57;;
47669;SDS011;33408;52.062;11.722;2022-08-27T11:22:56;15.85;;;9.32;;
47669;SDS011;33408;52.062;11.722;2022-08-27T11:25:36;16.65;;;8.75;;
47669;SDS011;33408;52.062;11.722;2022-08-27T11:30:40;14.23;;;8.18;;
47669;SDS011;33408;52.062;11.722;2022-08-27T11:33:18;15.23;;;7.65;;
47669;SDS011;33408;52.062;11.722;2022-08-27T11:36:01;15.10;;;7.35;;
47669;SDS011;33408;52.062;11.722;2022-08-27T11:38:43;12.68;;;8.27;;
47669;SDS011;33408;52.062;11.722;2022-08-27T11:41:26;18.63;;;9.10;;
47669;SDS011;33408;52.062;11.722;2022-08-27T11:44:04;14.02;;;9.18;;
47669;SDS011;33408;52.062;11.722;2022-08-27T11:46:38;16.02;;;8.80;;
47669;SDS011;33408;52.062;11.722;2022-08-27T11:49:08;12.43;;;7.03;;
47669;SDS011;33408;52.062;11.722;2022-08-27T11:51:35;14.25;;;7.80;;
47669;SDS011;33408;52.062;11.722;2022-08-27T11:54:04;11.13;;;7.50;;
47669;SDS011;33408;52.062;11.722;2022-08-27T11:56:36;12.38;;;7.65;;
47669;SDS011;33408;52.062;11.722;2022-08-27T11:59:19;14.55;;;7.80;;
47669;SDS011;33408;52.062;11.722;2022-08-27T12:01:47;11.35;;;6.65;;
47669;SDS011;33408;52.062;11.722;2022-08-27T12:04:20;12.50;;;7.05;;
47669;SDS011;33408;52.062;11.722;2022-08-27T12:06:59;14.60;;;7.32;;
47669;SDS011;33408;52.062;11.722;2022-08-27T12:09:28;11.15;;;6.60;;
47669;SDS011;33408;52.062;11.722;2022-08-27T12:11:59;13.15;;;6.90;;
47669;SDS011;33408;52.062;11.722;2022-08-27T12:14:35;15.60;;;7.13;;
47669;SDS011;33408;52.062;11.722;2022-08-27T12:17:10;16.08;;;9.02;;
47669;SDS011;33408;52.062;11.722;2022-08-27T12:19:48;18.27;;;8.43;;
47669;SDS011;33408;52.062;11.722;2022-08-27T12:22:36;15.20;;;8.90;;
47669;SDS011;33408;52.062;11.722;2022-08-27T12:25:37;15.55;;;9.27;;
47669;SDS011;33408;52.062;11.722;2022-08-27T12:28:05;19.42;;;10.27;;
47669;SDS011;33408;52.062;11.722;2022-08-27T12:30:34;14.77;;;9.43;;
47669;SDS011;33408;52.062;11.722;2022-08-27T12:33:09;18.65;;;9.73;;
47669;SDS011;33408;52.062;11.722;2022-08-27T12:35:40;18.08;;;9.00;;
47669;SDS011;33408;52.062;11.722;2022-08-27T12:38:14;15.93;;;9.02;;
47669;SDS011;33408;52.062;11.722;2022-08-27T12:40:47;13.57;;;9.43;;
47669;SDS011;33408;52.062;11.722;2022-08-27T12:43:22;15.43;;;9.15;;
47669;SDS011;33408;52.062;11.722;2022-08-27T12:45:51;13.25;;;8.75;;
47669;SDS011;33408;52.062;11.722;2022-08-27T12:48:23;14.07;;;9.27;;
47669;SDS011;33408;52.062;11.722;2022-08-27T12:50:54;15.38;;;9.35;;
47669;SDS011;33408;52.062;11.722;2022-08-27T12:53:25;13.65;;;8.25;;
47669;SDS011;33408;52.062;11.722;2022-08-27T12:56:02;15.23;;;8.20;;
47669;SDS011;33408;52.062;11.722;2022-08-27T12:58:47;13.60;;;8.63;;
47669;SDS011;33408;52.062;11.722;2022-08-27T13:01:27;13.80;;;7.68;;
47669;SDS011;33408;52.062;11.722;2022-08-27T13:04:02;13.02;;;8.88;;
47669;SDS011;33408;52.062;11.722;2022-08-27T13:06:30;15.20;;;8.57;;
47669;SDS011;33408;52.062;11.722;2022-08-27T13:09:00;13.20;;;8.60;;
47669;SDS011;33408;52.062;11.722;2022-08-27T13:11:29;11.98;;;7.72;;
47669;SDS011;33408;52.062;11.722;2022-08-27T13:14:06;13.00;;;7.95;;
47669;SDS011;33408;52.062;11.722;2022-08-27T13:16:35;16.13;;;8.70;;
47669;SDS011;33408;52.062;11.722;2022-08-27T13:19:03;11.02;;;7.85;;
47669;SDS011;33408;52.062;11.722;2022-08-27T13:21:32;12.50;;;8.50;;
47669;SDS011;33408;52.062;11.722;2022-08-27T13:23:59;12.93;;;8.40;;
47669;SDS011;33408;52.062;11.722;2022-08-27T13:26:31;10.88;;;7.68;;
47669;SDS011;33408;52.062;11.722;2022-08-27T13:29:01;12.18;;;7.85;;
47669;SDS011;33408;52.062;11.722;2022-08-27T13:31:31;13.10;;;8.13;;
47669;SDS011;33408;52.062;11.722;2022-08-27T13:33:59;10.60;;;7.65;;
47669;SDS011;33408;52.062;11.722;2022-08-27T13:36:30;20.17;;;8.05;;
47669;SDS011;33408;52.062;11.722;2022-08-27T13:38:59;13.45;;;8.00;;
47669;SDS011;33408;52.062;11.722;2022-08-27T13:41:28;12.38;;;8.05;;
47669;SDS011;33408;52.062;11.722;2022-08-27T13:43:57;15.15;;;8.73;;
47669;SDS011;33408;52.062;11.722;2022-08-27T13:46:33;10.48;;;8.75;;
47669;SDS011;33408;52.062;11.722;2022-08-27T13:49:12;15.10;;;8.57;;
47669;SDS011;33408;52.062;11.722;2022-08-27T13:51:42;23.90;;;8.90;;
47669;SDS011;33408;52.062;11.722;2022-08-27T13:54:10;16.80;;;9.45;;
47669;SDS011;33408;52.062;11.722;2022-08-27T13:56:38;17.98;;;9.65;;
47669;SDS011;33408;52.062;11.722;2022-08-27T13:59:07;17.83;;;9.38;;
47669;SDS011;33408;52.062;11.722;2022-08-27T14:01:37;13.57;;;8.63;;
47669;SDS011;33408;52.062;11.722;2022-08-27T14:04:05;14.63;;;8.85;;
47669;SDS011;33408;52.062;11.722;2022-08-27T14:06:33;15.80;;;8.10;;
47669;SDS011;33408;52.062;11.722;2022-08-27T14:09:07;11.43;;;7.75;;
47669;SDS011;33408;52.062;11.722;2022-08-27T14:11:35;15.27;;;9.18;;
47669;SDS011;33408;52.062;11.722;2022-08-27T14:14:02;13.52;;;7.57;;
47669;SDS011;33408;52.062;11.722;2022-08-27T14:16:30;10.23;;;7.47;;
47669;SDS011;33408;52.062;11.722;2022-08-27T14:19:03;13.65;;;6.90;;
47669;SDS011;33408;52.062;11.722;2022-08-27T14:21:33;9.82;;;5.30;;
47669;SDS011;33408;52.062;11.722;2022-08-27T14:24:02;8.02;;;5.63;;
47669;SDS011;33408;52.062;11.722;2022-08-27T14:26:29;9.68;;;5.15;;
47669;SDS011;33408;52.062;11.722;2022-08-27T14:28:55;9.13;;;5.80;;
47669;SDS011;33408;52.062;11.722;2022-08-27T14:31:22;7.72;;;5.68;;
47669;SDS011;33408;52.062;11.722;2022-08-27T14:33:49;12.63;;;7.60;;